Pigeon, MI (48755)

8:09 AM EDT on September 01, 2015 (GMT -0400)
Sand Point | | Change Station
CLOSE
Current Station
Personal Weather Station
Location: Sand Point, MI
Elevation: 598 ft
Nearby Weather Stations
Active Advisory: Dense Fog Advisory

Elev 598 ft 43.91 °N, 83.38 °W | Updated 3 minutes ago

Fog
Fog
68.1 °F
Feels Like 68.1 °F
N
4.0
Wind Variable Wind from SW
Gusts 4.0 mph

Today
High -- | Low -- °F
--% Chance of Precip.
Yesterday
High -- | Low -- °F
Precip. -- in
6:56 AM 8:09 PM
Waning Gibbous, 89% visible
Pressure 30.09 in
Visibility 0.2 miles
Clouds Overcast 500 ft
Dew Point 67 °F
Humidity 97%
Rainfall 0.00 in
Snow Depth Not available.
UV 0.0 out of 12
Pollen 10.60 out of 12
Air Quality Not available.
Flu Activity Not available.
METAR KBAX 011153Z AUTO 00000KT M1/4SM FG OVC005 16/16 A3009 RMK AO2 T01550155
Pressure 30.09 in
Visibility 0.2 miles
Clouds Overcast 500 ft
Dew Point 67 °F
Humidity 97%
Rainfall 0.00 in
Snow Depth Not available.
UV 0.0 out of 12
Pollen 10.60 out of 12
Air Quality Not available.
Flu Activity Not available.
METAR KBAX 011153Z AUTO 00000KT M1/4SM FG OVC005 16/16 A3009 RMK AO2 T01550155

10-Day Weather Forecast

×

Almanac

Astronomy

Sep. 01, 2015 Rise Set
Actual Time
Civil Twilight
Nautical Twilight
Astronomical Twilight
Moon
Length of Visible Light
Length of Day
Tomorrow will be .
, % of the Moon is Illuminated

Today's Extremes

State Highs State Lows

Community

WunderPhotos

Upload Photos

1,851,508 photos uploaded!

WunderBlogs® & News

Nearby

Air Quality

  Air Quality AQ Index Pollutant
Not available.

Snow Depth

Station Depth Elevation

Earthquake Activity

City Distance Mag. Time & Date
Minimum magnitude displayed is 2.5.

Coastal Water Temperatures

Place Temperature

Stations

Nearby Weather Stations

Station Location Temp. Windchill Dew Point Humidity Wind Precip. Elev Updated Type
                   
Dense Fog Advisory
Statement as of 5:03 AM EDT on September 01, 2015

... Dense fog advisory in effect until 9 am EDT this morning...

The National Weather Service in Detroit/Pontiac has issued a
dense fog advisory... which is in effect until 9 am EDT this
morning.

Hazardous weather...

* areas of dense fog with visibilities reduced to 1/4 mile or
   less.

* Fog will slowly lift through the latter half of the morning.

Impacts...

* motorists will experience decreased visibility.

* The morning commute may be adversely affected.

Precautionary/preparedness actions...

* a dense fog advisory means visibilities will frequently be
reduced to less than one quarter mile. If driving... slow down...
use your headlights... and leave plenty of distance ahead of you.


* Prepare... plan... and stay informed. Visit
   http://go.USA.Gov/rr8



Mr